sensor_id;sensor_type;location;lat;lon;timestamp;P1;durP1;ratioP1;P2;durP2;ratioP2
36963;SDS011;22878;48.616;35.326;2023-02-28T00:00:49;64.50;;;25.80;;
36963;SDS011;22878;48.616;35.326;2023-02-28T00:03:15;61.20;;;24.30;;
36963;SDS011;22878;48.616;35.326;2023-02-28T00:05:41;64.90;;;26.60;;
36963;SDS011;22878;48.616;35.326;2023-02-28T00:08:07;66.80;;;26.40;;
36963;SDS011;22878;48.616;35.326;2023-02-28T00:10:33;70.70;;;27.10;;
36963;SDS011;22878;48.616;35.326;2023-02-28T00:13:00;71.20;;;28.80;;
36963;SDS011;22878;48.616;35.326;2023-02-28T00:15:30;69.80;;;27.60;;
36963;SDS011;22878;48.616;35.326;2023-02-28T00:17:56;76.70;;;29.40;;
36963;SDS011;22878;48.616;35.326;2023-02-28T00:20:22;72.50;;;28.10;;
36963;SDS011;22878;48.616;35.326;2023-02-28T00:22:49;77.40;;;30.10;;
36963;SDS011;22878;48.616;35.326;2023-02-28T00:25:18;78.20;;;29.90;;
36963;SDS011;22878;48.616;35.326;2023-02-28T00:27:46;79.20;;;29.90;;
36963;SDS011;22878;48.616;35.326;2023-02-28T00:30:14;79.60;;;29.70;;
36963;SDS011;22878;48.616;35.326;2023-02-28T00:32:41;76.10;;;29.50;;
36963;SDS011;22878;48.616;35.326;2023-02-28T00:35:07;79.40;;;30.00;;
36963;SDS011;22878;48.616;35.326;2023-02-28T00:37:34;81.60;;;31.00;;
36963;SDS011;22878;48.616;35.326;2023-02-28T00:40:00;80.30;;;30.40;;
36963;SDS011;22878;48.616;35.326;2023-02-28T00:42:29;76.20;;;29.70;;
36963;SDS011;22878;48.616;35.326;2023-02-28T00:44:55;80.00;;;30.90;;
36963;SDS011;22878;48.616;35.326;2023-02-28T00:47:20;84.30;;;31.70;;
36963;SDS011;22878;48.616;35.326;2023-02-28T00:49:46;84.20;;;31.20;;
36963;SDS011;22878;48.616;35.326;2023-02-28T00:52:11;86.00;;;32.20;;
36963;SDS011;22878;48.616;35.326;2023-02-28T00:54:37;79.70;;;30.20;;
36963;SDS011;22878;48.616;35.326;2023-02-28T00:57:02;82.20;;;32.00;;
36963;SDS011;22878;48.616;35.326;2023-02-28T00:59:28;81.00;;;30.50;;
36963;SDS011;22878;48.616;35.326;2023-02-28T01:01:53;80.80;;;29.60;;
36963;SDS011;22878;48.616;35.326;2023-02-28T01:04:19;76.50;;;29.50;;
36963;SDS011;22878;48.616;35.326;2023-02-28T01:06:45;83.40;;;30.40;;
36963;SDS011;22878;48.616;35.326;2023-02-28T01:09:10;79.20;;;30.20;;
36963;SDS011;22878;48.616;35.326;2023-02-28T01:11:37;79.10;;;31.00;;
36963;SDS011;22878;48.616;35.326;2023-02-28T01:14:03;78.90;;;29.70;;
36963;SDS011;22878;48.616;35.326;2023-02-28T01:16:29;80.20;;;30.80;;
36963;SDS011;22878;48.616;35.326;2023-02-28T01:18:55;76.10;;;28.70;;
36963;SDS011;22878;48.616;35.326;2023-02-28T01:21:21;74.10;;;28.90;;
36963;SDS011;22878;48.616;35.326;2023-02-28T01:23:47;80.90;;;30.50;;
36963;SDS011;22878;48.616;35.326;2023-02-28T01:26:14;79.20;;;30.00;;
36963;SDS011;22878;48.616;35.326;2023-02-28T01:28:42;78.50;;;28.90;;
36963;SDS011;22878;48.616;35.326;2023-02-28T01:31:08;75.50;;;29.10;;
36963;SDS011;22878;48.616;35.326;2023-02-28T01:33:34;74.20;;;29.30;;
36963;SDS011;22878;48.616;35.326;2023-02-28T01:36:01;76.10;;;29.30;;
36963;SDS011;22878;48.616;35.326;2023-02-28T01:38:29;65.40;;;26.70;;
36963;SDS011;22878;48.616;35.326;2023-02-28T01:40:55;66.70;;;26.40;;
36963;SDS011;22878;48.616;35.326;2023-02-28T01:45:51;64.50;;;25.20;;
36963;SDS011;22878;48.616;35.326;2023-02-28T01:48:18;61.40;;;25.70;;
36963;SDS011;22878;48.616;35.326;2023-02-28T01:50:45;62.50;;;24.60;;
36963;SDS011;22878;48.616;35.326;2023-02-28T01:53:14;58.80;;;25.20;;
36963;SDS011;22878;48.616;35.326;2023-02-28T01:55:45;59.70;;;23.70;;
36963;SDS011;22878;48.616;35.326;2023-02-28T01:58:14;61.00;;;25.20;;
36963;SDS011;22878;48.616;35.326;2023-02-28T02:00:39;58.50;;;23.40;;
36963;SDS011;22878;48.616;35.326;2023-02-28T02:03:12;57.60;;;23.80;;
36963;SDS011;22878;48.616;35.326;2023-02-28T02:05:40;57.40;;;23.90;;
36963;SDS011;22878;48.616;35.326;2023-02-28T02:08:08;63.20;;;24.90;;
36963;SDS011;22878;48.616;35.326;2023-02-28T02:10:50;60.20;;;23.60;;
36963;SDS011;22878;48.616;35.326;2023-02-28T02:38:12;56.40;;;22.70;;
36963;SDS011;22878;48.616;35.326;2023-02-28T02:40:50;54.50;;;22.40;;
36963;SDS011;22878;48.616;35.326;2023-02-28T02:43:25;55.60;;;23.00;;
36963;SDS011;22878;48.616;35.326;2023-02-28T02:46:02;57.10;;;24.00;;
36963;SDS011;22878;48.616;35.326;2023-02-28T02:48:50;54.60;;;23.70;;
36963;SDS011;22878;48.616;35.326;2023-02-28T02:51:20;64.30;;;25.00;;
36963;SDS011;22878;48.616;35.326;2023-02-28T02:53:52;57.00;;;23.50;;
36963;SDS011;22878;48.616;35.326;2023-02-28T02:56:23;57.90;;;23.80;;
36963;SDS011;22878;48.616;35.326;2023-02-28T02:58:52;55.70;;;23.90;;
36963;SDS011;22878;48.616;35.326;2023-02-28T03:01:22;54.40;;;23.20;;
36963;SDS011;22878;48.616;35.326;2023-02-28T03:03:57;58.10;;;24.00;;
36963;SDS011;22878;48.616;35.326;2023-02-28T03:06:28;54.60;;;23.00;;
36963;SDS011;22878;48.616;35.326;2023-02-28T03:08:53;56.60;;;23.50;;
36963;SDS011;22878;48.616;35.326;2023-02-28T03:11:19;52.00;;;22.20;;
36963;SDS011;22878;48.616;35.326;2023-02-28T03:16:33;53.40;;;22.90;;
36963;SDS011;22878;48.616;35.326;2023-02-28T03:24:34;53.40;;;22.40;;
36963;SDS011;22878;48.616;35.326;2023-02-28T03:27:10;51.20;;;23.10;;
36963;SDS011;22878;48.616;35.326;2023-02-28T03:30:06;54.50;;;23.10;;
36963;SDS011;22878;48.616;35.326;2023-02-28T03:32:40;49.80;;;22.80;;
36963;SDS011;22878;48.616;35.326;2023-02-28T03:35:20;54.90;;;22.70;;
36963;SDS011;22878;48.616;35.326;2023-02-28T03:40:55;48.10;;;22.10;;
36963;SDS011;22878;48.616;35.326;2023-02-28T03:43:35;52.40;;;22.10;;
36963;SDS011;22878;48.616;35.326;2023-02-28T03:46:06;48.20;;;21.70;;
36963;SDS011;22878;48.616;35.326;2023-02-28T03:48:38;50.90;;;22.70;;
36963;SDS011;22878;48.616;35.326;2023-02-28T03:51:08;51.60;;;22.50;;
36963;SDS011;22878;48.616;35.326;2023-02-28T03:53:39;51.10;;;22.40;;
36963;SDS011;22878;48.616;35.326;2023-02-28T03:56:14;47.50;;;21.80;;
36963;SDS011;22878;48.616;35.326;2023-02-28T03:58:46;51.10;;;22.40;;
36963;SDS011;22878;48.616;35.326;2023-02-28T04:01:38;49.60;;;22.00;;
36963;SDS011;22878;48.616;35.326;2023-02-28T04:04:07;46.30;;;21.40;;
36963;SDS011;22878;48.616;35.326;2023-02-28T04:06:34;44.80;;;21.20;;
36963;SDS011;22878;48.616;35.326;2023-02-28T04:09:00;46.40;;;21.90;;
36963;SDS011;22878;48.616;35.326;2023-02-28T04:13:56;45.70;;;19.70;;
36963;SDS011;22878;48.616;35.326;2023-02-28T04:16:21;52.30;;;22.90;;
36963;SDS011;22878;48.616;35.326;2023-02-28T04:18:47;49.90;;;22.20;;
36963;SDS011;22878;48.616;35.326;2023-02-28T04:21:12;48.10;;;20.60;;
36963;SDS011;22878;48.616;35.326;2023-02-28T04:23:38;50.20;;;22.30;;
36963;SDS011;22878;48.616;35.326;2023-02-28T04:26:04;47.90;;;21.20;;
36963;SDS011;22878;48.616;35.326;2023-02-28T04:28:31;52.80;;;22.50;;
36963;SDS011;22878;48.616;35.326;2023-02-28T04:31:01;52.70;;;21.60;;
36963;SDS011;22878;48.616;35.326;2023-02-28T04:33:29;48.00;;;21.60;;
36963;SDS011;22878;48.616;35.326;2023-02-28T04:35:59;46.30;;;20.80;;
36963;SDS011;22878;48.616;35.326;2023-02-28T04:38:24;48.30;;;21.60;;
36963;SDS011;22878;48.616;35.326;2023-02-28T04:40:50;48.20;;;21.30;;
36963;SDS011;22878;48.616;35.326;2023-02-28T04:43:16;50.10;;;20.80;;
36963;SDS011;22878;48.616;35.326;2023-02-28T04:45:41;48.90;;;21.10;;
36963;SDS011;22878;48.616;35.326;2023-02-28T04:48:06;52.10;;;21.40;;
36963;SDS011;22878;48.616;35.326;2023-02-28T04:50:32;49.50;;;21.00;;
36963;SDS011;22878;48.616;35.326;2023-02-28T04:52:58;50.70;;;21.10;;
36963;SDS011;22878;48.616;35.326;2023-02-28T04:55:23;48.20;;;21.10;;
36963;SDS011;22878;48.616;35.326;2023-02-28T04:57:49;49.50;;;21.20;;
36963;SDS011;22878;48.616;35.326;2023-02-28T05:00:14;47.00;;;20.70;;
36963;SDS011;22878;48.616;35.326;2023-02-28T05:02:41;46.90;;;20.30;;
36963;SDS011;22878;48.616;35.326;2023-02-28T05:05:07;44.70;;;19.90;;
36963;SDS011;22878;48.616;35.326;2023-02-28T05:07:33;44.70;;;19.40;;
36963;SDS011;22878;48.616;35.326;2023-02-28T05:09:58;45.60;;;18.90;;
36963;SDS011;22878;48.616;35.326;2023-02-28T05:12:24;43.90;;;18.70;;
36963;SDS011;22878;48.616;35.326;2023-02-28T05:14:50;45.70;;;19.60;;
36963;SDS011;22878;48.616;35.326;2023-02-28T05:17:15;40.20;;;17.30;;
36963;SDS011;22878;48.616;35.326;2023-02-28T05:19:41;42.60;;;17.80;;
36963;SDS011;22878;48.616;35.326;2023-02-28T05:22:12;38.40;;;17.70;;
36963;SDS011;22878;48.616;35.326;2023-02-28T05:24:40;43.60;;;19.00;;
36963;SDS011;22878;48.616;35.326;2023-02-28T05:27:07;37.70;;;17.50;;
36963;SDS011;22878;48.616;35.326;2023-02-28T05:29:33;44.60;;;19.10;;
36963;SDS011;22878;48.616;35.326;2023-02-28T05:31:59;45.10;;;18.80;;
36963;SDS011;22878;48.616;35.326;2023-02-28T05:34:25;44.20;;;17.70;;
36963;SDS011;22878;48.616;35.326;2023-02-28T05:36:50;44.10;;;19.60;;
36963;SDS011;22878;48.616;35.326;2023-02-28T05:39:16;45.40;;;18.60;;
36963;SDS011;22878;48.616;35.326;2023-02-28T05:41:41;40.80;;;18.20;;
36963;SDS011;22878;48.616;35.326;2023-02-28T05:44:08;40.70;;;17.20;;
36963;SDS011;22878;48.616;35.326;2023-02-28T05:46:34;43.80;;;19.00;;
36963;SDS011;22878;48.616;35.326;2023-02-28T05:49:00;40.80;;;18.70;;
36963;SDS011;22878;48.616;35.326;2023-02-28T05:51:26;42.80;;;18.80;;
36963;SDS011;22878;48.616;35.326;2023-02-28T05:53:51;41.90;;;19.20;;
36963;SDS011;22878;48.616;35.326;2023-02-28T05:56:17;40.70;;;17.20;;
36963;SDS011;22878;48.616;35.326;2023-02-28T05:58:42;42.00;;;18.20;;
36963;SDS011;22878;48.616;35.326;2023-02-28T06:01:24;40.50;;;17.70;;
36963;SDS011;22878;48.616;35.326;2023-02-28T06:03:50;44.40;;;18.70;;
36963;SDS011;22878;48.616;35.326;2023-02-28T06:06:15;44.00;;;18.40;;
36963;SDS011;22878;48.616;35.326;2023-02-28T06:08:41;36.30;;;15.50;;
36963;SDS011;22878;48.616;35.326;2023-02-28T06:11:08;39.80;;;16.60;;
36963;SDS011;22878;48.616;35.326;2023-02-28T06:13:33;39.20;;;17.00;;
36963;SDS011;22878;48.616;35.326;2023-02-28T06:16:02;37.60;;;16.20;;
36963;SDS011;22878;48.616;35.326;2023-02-28T06:18:28;38.40;;;16.90;;
36963;SDS011;22878;48.616;35.326;2023-02-28T06:20:53;33.30;;;15.00;;
36963;SDS011;22878;48.616;35.326;2023-02-28T06:23:20;32.60;;;14.90;;
36963;SDS011;22878;48.616;35.326;2023-02-28T06:25:46;32.20;;;14.80;;
36963;SDS011;22878;48.616;35.326;2023-02-28T06:28:12;35.20;;;14.70;;
36963;SDS011;22878;48.616;35.326;2023-02-28T06:30:38;29.90;;;14.30;;
36963;SDS011;22878;48.616;35.326;2023-02-28T06:33:04;30.40;;;14.40;;
36963;SDS011;22878;48.616;35.326;2023-02-28T06:35:30;32.30;;;13.60;;
36963;SDS011;22878;48.616;35.326;2023-02-28T06:37:55;34.10;;;14.50;;
36963;SDS011;22878;48.616;35.326;2023-02-28T06:40:21;31.30;;;12.50;;
36963;SDS011;22878;48.616;35.326;2023-02-28T06:42:47;31.00;;;12.80;;
36963;SDS011;22878;48.616;35.326;2023-02-28T06:45:12;28.20;;;12.40;;
36963;SDS011;22878;48.616;35.326;2023-02-28T06:47:39;28.90;;;11.80;;
36963;SDS011;22878;48.616;35.326;2023-02-28T06:50:06;27.10;;;11.90;;
36963;SDS011;22878;48.616;35.326;2023-02-28T06:52:36;27.00;;;11.60;;
36963;SDS011;22878;48.616;35.326;2023-02-28T06:55:03;25.10;;;11.00;;
36963;SDS011;22878;48.616;35.326;2023-02-28T06:57:31;26.80;;;10.90;;
36963;SDS011;22878;48.616;35.326;2023-02-28T06:59:58;24.90;;;10.80;;
36963;SDS011;22878;48.616;35.326;2023-02-28T07:02:25;29.10;;;11.20;;
36963;SDS011;22878;48.616;35.326;2023-02-28T07:04:51;27.90;;;11.50;;
36963;SDS011;22878;48.616;35.326;2023-02-28T07:07:16;23.80;;;10.60;;
36963;SDS011;22878;48.616;35.326;2023-02-28T07:09:42;27.70;;;11.80;;
36963;SDS011;22878;48.616;35.326;2023-02-28T07:12:07;21.70;;;10.60;;
36963;SDS011;22878;48.616;35.326;2023-02-28T07:14:33;24.70;;;10.60;;
36963;SDS011;22878;48.616;35.326;2023-02-28T07:16:59;23.00;;;10.10;;
36963;SDS011;22878;48.616;35.326;2023-02-28T07:19:24;21.50;;;10.30;;
36963;SDS011;22878;48.616;35.326;2023-02-28T07:21:50;26.90;;;11.60;;
36963;SDS011;22878;48.616;35.326;2023-02-28T07:24:16;24.70;;;11.10;;
36963;SDS011;22878;48.616;35.326;2023-02-28T07:26:43;26.80;;;11.80;;
36963;SDS011;22878;48.616;35.326;2023-02-28T07:29:08;26.30;;;12.00;;
36963;SDS011;22878;48.616;35.326;2023-02-28T07:31:34;25.70;;;11.60;;
36963;SDS011;22878;48.616;35.326;2023-02-28T07:34:00;25.20;;;11.10;;
36963;SDS011;22878;48.616;35.326;2023-02-28T07:36:25;27.10;;;12.10;;
36963;SDS011;22878;48.616;35.326;2023-02-28T07:38:51;23.10;;;11.30;;
36963;SDS011;22878;48.616;35.326;2023-02-28T07:41:18;26.80;;;11.80;;
36963;SDS011;22878;48.616;35.326;2023-02-28T07:43:45;26.80;;;11.50;;
36963;SDS011;22878;48.616;35.326;2023-02-28T07:46:12;26.30;;;11.70;;
36963;SDS011;22878;48.616;35.326;2023-02-28T07:48:42;26.20;;;12.10;;
36963;SDS011;22878;48.616;35.326;2023-02-28T07:51:09;23.50;;;11.20;;
36963;SDS011;22878;48.616;35.326;2023-02-28T07:53:35;23.20;;;10.60;;
36963;SDS011;22878;48.616;35.326;2023-02-28T07:56:01;22.10;;;10.20;;
36963;SDS011;22878;48.616;35.326;2023-02-28T07:58:28;21.30;;;10.60;;
36963;SDS011;22878;48.616;35.326;2023-02-28T08:00:54;23.00;;;11.20;;
36963;SDS011;22878;48.616;35.326;2023-02-28T08:03:21;22.30;;;10.60;;
36963;SDS011;22878;48.616;35.326;2023-02-28T08:05:48;21.20;;;10.90;;
36963;SDS011;22878;48.616;35.326;2023-02-28T08:08:15;22.20;;;10.50;;
36963;SDS011;22878;48.616;35.326;2023-02-28T08:10:42;22.00;;;10.10;;
36963;SDS011;22878;48.616;35.326;2023-02-28T08:13:07;20.40;;;10.00;;
36963;SDS011;22878;48.616;35.326;2023-02-28T08:15:33;24.90;;;11.20;;
36963;SDS011;22878;48.616;35.326;2023-02-28T08:17:59;24.70;;;11.40;;
36963;SDS011;22878;48.616;35.326;2023-02-28T08:20:25;22.10;;;10.80;;
36963;SDS011;22878;48.616;35.326;2023-02-28T08:22:52;20.00;;;9.30;;
36963;SDS011;22878;48.616;35.326;2023-02-28T08:25:17;22.10;;;10.20;;
36963;SDS011;22878;48.616;35.326;2023-02-28T08:27:43;22.00;;;10.00;;
36963;SDS011;22878;48.616;35.326;2023-02-28T08:30:10;21.50;;;9.70;;
36963;SDS011;22878;48.616;35.326;2023-02-28T08:32:37;20.10;;;9.50;;
36963;SDS011;22878;48.616;35.326;2023-02-28T08:35:03;18.30;;;9.60;;
36963;SDS011;22878;48.616;35.326;2023-02-28T08:37:30;18.50;;;9.70;;
36963;SDS011;22878;48.616;35.326;2023-02-28T08:39:55;20.30;;;8.80;;
36963;SDS011;22878;48.616;35.326;2023-02-28T08:42:21;20.50;;;9.70;;
36963;SDS011;22878;48.616;35.326;2023-02-28T08:44:47;18.70;;;9.20;;
36963;SDS011;22878;48.616;35.326;2023-02-28T08:47:12;23.40;;;10.40;;
36963;SDS011;22878;48.616;35.326;2023-02-28T08:49:38;19.70;;;9.60;;
36963;SDS011;22878;48.616;35.326;2023-02-28T08:52:04;19.30;;;9.10;;
36963;SDS011;22878;48.616;35.326;2023-02-28T08:54:29;23.40;;;10.60;;
36963;SDS011;22878;48.616;35.326;2023-02-28T08:56:57;22.30;;;10.50;;
36963;SDS011;22878;48.616;35.326;2023-02-28T08:59:22;24.70;;;11.00;;
36963;SDS011;22878;48.616;35.326;2023-02-28T09:01:48;25.50;;;10.00;;
36963;SDS011;22878;48.616;35.326;2023-02-28T09:04:14;25.40;;;11.30;;
36963;SDS011;22878;48.616;35.326;2023-02-28T09:06:39;26.60;;;11.60;;
36963;SDS011;22878;48.616;35.326;2023-02-28T09:09:05;23.30;;;10.60;;
36963;SDS011;22878;48.616;35.326;2023-02-28T09:11:33;25.10;;;10.90;;
36963;SDS011;22878;48.616;35.326;2023-02-28T09:14:00;27.00;;;11.50;;
36963;SDS011;22878;48.616;35.326;2023-02-28T09:16:28;26.50;;;11.60;;
36963;SDS011;22878;48.616;35.326;2023-02-28T09:18:56;28.60;;;11.70;;
36963;SDS011;22878;48.616;35.326;2023-02-28T09:21:21;25.70;;;11.90;;
36963;SDS011;22878;48.616;35.326;2023-02-28T09:23:48;27.80;;;12.10;;
36963;SDS011;22878;48.616;35.326;2023-02-28T09:26:19;27.40;;;11.70;;
36963;SDS011;22878;48.616;35.326;2023-02-28T09:28:47;29.70;;;12.40;;
36963;SDS011;22878;48.616;35.326;2023-02-28T09:31:14;23.80;;;11.30;;
36963;SDS011;22878;48.616;35.326;2023-02-28T09:33:45;26.30;;;11.40;;
36963;SDS011;22878;48.616;35.326;2023-02-28T09:36:12;22.30;;;11.00;;
36963;SDS011;22878;48.616;35.326;2023-02-28T09:38:37;24.00;;;11.40;;
36963;SDS011;22878;48.616;35.326;2023-02-28T09:41:08;21.50;;;10.00;;
36963;SDS011;22878;48.616;35.326;2023-02-28T09:43:38;22.30;;;10.30;;
36963;SDS011;22878;48.616;35.326;2023-02-28T09:46:12;20.60;;;10.00;;
36963;SDS011;22878;48.616;35.326;2023-02-28T09:48:41;23.60;;;10.90;;
36963;SDS011;22878;48.616;35.326;2023-02-28T09:53:51;20.80;;;10.00;;
36963;SDS011;22878;48.616;35.326;2023-02-28T09:56:20;24.10;;;10.40;;
36963;SDS011;22878;48.616;35.326;2023-02-28T10:07:01;19.70;;;9.60;;
36963;SDS011;22878;48.616;35.326;2023-02-28T10:09:42;22.80;;;10.00;;
36963;SDS011;22878;48.616;35.326;2023-02-28T10:12:10;23.40;;;10.70;;
36963;SDS011;22878;48.616;35.326;2023-02-28T10:14:38;21.20;;;10.30;;
36963;SDS011;22878;48.616;35.326;2023-02-28T10:17:11;23.10;;;10.60;;
36963;SDS011;22878;48.616;35.326;2023-02-28T10:22:16;23.50;;;9.80;;
36963;SDS011;22878;48.616;35.326;2023-02-28T10:24:44;22.70;;;9.70;;
36963;SDS011;22878;48.616;35.326;2023-02-28T10:27:18;20.80;;;9.40;;
36963;SDS011;22878;48.616;35.326;2023-02-28T10:29:46;19.00;;;9.30;;
36963;SDS011;22878;48.616;35.326;2023-02-28T10:32:14;20.70;;;9.60;;
36963;SDS011;22878;48.616;35.326;2023-02-28T10:34:42;17.00;;;8.10;;
36963;SDS011;22878;48.616;35.326;2023-02-28T10:37:08;22.00;;;8.80;;
36963;SDS011;22878;48.616;35.326;2023-02-28T10:39:43;17.50;;;8.00;;
36963;SDS011;22878;48.616;35.326;2023-02-28T10:42:30;19.30;;;9.00;;
36963;SDS011;22878;48.616;35.326;2023-02-28T10:47:48;19.50;;;9.00;;
36963;SDS011;22878;48.616;35.326;2023-02-28T10:50:29;20.70;;;9.10;;
36963;SDS011;22878;48.616;35.326;2023-02-28T10:53:03;19.30;;;9.20;;
36963;SDS011;22878;48.616;35.326;2023-02-28T10:55:35;19.40;;;8.80;;
36963;SDS011;22878;48.616;35.326;2023-02-28T10:58:01;17.60;;;8.60;;
36963;SDS011;22878;48.616;35.326;2023-02-28T11:00:32;19.20;;;9.30;;
36963;SDS011;22878;48.616;35.326;2023-02-28T11:03:00;18.40;;;9.00;;
36963;SDS011;22878;48.616;35.326;2023-02-28T11:05:27;22.20;;;9.10;;
36963;SDS011;22878;48.616;35.326;2023-02-28T11:10:54;18.40;;;8.80;;
36963;SDS011;22878;48.616;35.326;2023-02-28T11:13:33;16.90;;;8.10;;
36963;SDS011;22878;48.616;35.326;2023-02-28T11:16:07;19.90;;;8.80;;
36963;SDS011;22878;48.616;35.326;2023-02-28T11:18:52;19.30;;;8.90;;
36963;SDS011;22878;48.616;35.326;2023-02-28T11:21:21;20.90;;;9.80;;
36963;SDS011;22878;48.616;35.326;2023-02-28T11:23:52;23.40;;;9.60;;
36963;SDS011;22878;48.616;35.326;2023-02-28T11:26:36;19.60;;;9.10;;
36963;SDS011;22878;48.616;35.326;2023-02-28T11:29:11;20.30;;;8.80;;
36963;SDS011;22878;48.616;35.326;2023-02-28T11:32:02;18.40;;;8.70;;
36963;SDS011;22878;48.616;35.326;2023-02-28T11:34:38;21.00;;;9.70;;
36963;SDS011;22878;48.616;35.326;2023-02-28T11:37:08;22.20;;;10.20;;
36963;SDS011;22878;48.616;35.326;2023-02-28T11:39:37;20.00;;;9.70;;
36963;SDS011;22878;48.616;35.326;2023-02-28T11:42:12;21.00;;;9.60;;
36963;SDS011;22878;48.616;35.326;2023-02-28T11:50:39;19.50;;;9.00;;
36963;SDS011;22878;48.616;35.326;2023-02-28T11:55:55;24.20;;;9.80;;
36963;SDS011;22878;48.616;35.326;2023-02-28T11:58:37;20.30;;;9.40;;
36963;SDS011;22878;48.616;35.326;2023-02-28T12:07:06;24.30;;;10.20;;
36963;SDS011;22878;48.616;35.326;2023-02-28T12:14:59;21.00;;;9.80;;
36963;SDS011;22878;48.616;35.326;2023-02-28T12:28:26;26.20;;;11.90;;
36963;SDS011;22878;48.616;35.326;2023-02-28T12:33:45;21.00;;;9.90;;
36963;SDS011;22878;48.616;35.326;2023-02-28T12:36:14;22.30;;;10.20;;
36963;SDS011;22878;48.616;35.326;2023-02-28T12:41:48;18.50;;;9.10;;
36963;SDS011;22878;48.616;35.326;2023-02-28T12:44:28;24.00;;;10.60;;
36963;SDS011;22878;48.616;35.326;2023-02-28T12:47:01;20.50;;;9.30;;
36963;SDS011;22878;48.616;35.326;2023-02-28T12:49:38;21.30;;;9.90;;
36963;SDS011;22878;48.616;35.326;2023-02-28T12:52:08;23.10;;;9.70;;
36963;SDS011;22878;48.616;35.326;2023-02-28T12:57:28;19.50;;;9.10;;
36963;SDS011;22878;48.616;35.326;2023-02-28T13:08:42;19.00;;;9.70;;
36963;SDS011;22878;48.616;35.326;2023-02-28T13:14:16;20.40;;;9.80;;
36963;SDS011;22878;48.616;35.326;2023-02-28T13:19:32;18.90;;;8.50;;
36963;SDS011;22878;48.616;35.326;2023-02-28T13:21:59;16.50;;;8.30;;
36963;SDS011;22878;48.616;35.326;2023-02-28T13:29:41;13.20;;;7.20;;
36963;SDS011;22878;48.616;35.326;2023-02-28T13:42:32;15.20;;;7.20;;
36963;SDS011;22878;48.616;35.326;2023-02-28T13:47:43;13.50;;;7.30;;
36963;SDS011;22878;48.616;35.326;2023-02-28T14:06:55;14.80;;;7.00;;
36963;SDS011;22878;48.616;35.326;2023-02-28T14:09:30;15.50;;;8.20;;
36963;SDS011;22878;48.616;35.326;2023-02-28T14:17:57;17.10;;;8.50;;
36963;SDS011;22878;48.616;35.326;2023-02-28T14:20:26;16.80;;;7.80;;
36963;SDS011;22878;48.616;35.326;2023-02-28T14:31:23;15.90;;;8.00;;
36963;SDS011;22878;48.616;35.326;2023-02-28T14:33:59;15.70;;;7.80;;
36963;SDS011;22878;48.616;35.326;2023-02-28T14:36:42;18.30;;;8.30;;
36963;SDS011;22878;48.616;35.326;2023-02-28T14:39:14;16.70;;;8.00;;
36963;SDS011;22878;48.616;35.326;2023-02-28T14:41:44;15.10;;;7.60;;
36963;SDS011;22878;48.616;35.326;2023-02-28T14:46:41;14.50;;;7.50;;
36963;SDS011;22878;48.616;35.326;2023-02-28T14:52:01;15.10;;;7.40;;
36963;SDS011;22878;48.616;35.326;2023-02-28T14:54:35;14.50;;;7.40;;
36963;SDS011;22878;48.616;35.326;2023-02-28T14:57:01;15.80;;;8.20;;
36963;SDS011;22878;48.616;35.326;2023-02-28T14:59:32;17.10;;;8.20;;
36963;SDS011;22878;48.616;35.326;2023-02-28T15:04:52;15.80;;;8.10;;
36963;SDS011;22878;48.616;35.326;2023-02-28T15:07:19;18.00;;;8.50;;
36963;SDS011;22878;48.616;35.326;2023-02-28T15:09:45;16.00;;;7.80;;
36963;SDS011;22878;48.616;35.326;2023-02-28T15:12:13;15.70;;;8.50;;
36963;SDS011;22878;48.616;35.326;2023-02-28T15:14:42;14.00;;;7.00;;
36963;SDS011;22878;48.616;35.326;2023-02-28T15:17:11;14.20;;;7.60;;
36963;SDS011;22878;48.616;35.326;2023-02-28T15:19:46;16.20;;;7.80;;
36963;SDS011;22878;48.616;35.326;2023-02-28T15:22:19;14.10;;;7.40;;
36963;SDS011;22878;48.616;35.326;2023-02-28T15:24:54;15.20;;;7.30;;
36963;SDS011;22878;48.616;35.326;2023-02-28T15:27:30;16.00;;;7.90;;
36963;SDS011;22878;48.616;35.326;2023-02-28T15:29:59;14.70;;;6.60;;
36963;SDS011;22878;48.616;35.326;2023-02-28T15:32:31;12.40;;;6.80;;
36963;SDS011;22878;48.616;35.326;2023-02-28T15:34:57;18.50;;;8.40;;
36963;SDS011;22878;48.616;35.326;2023-02-28T15:37:28;18.60;;;8.30;;
36963;SDS011;22878;48.616;35.326;2023-02-28T15:39:56;17.10;;;8.10;;
36963;SDS011;22878;48.616;35.326;2023-02-28T15:42:27;14.60;;;7.30;;
36963;SDS011;22878;48.616;35.326;2023-02-28T15:44:54;13.20;;;6.80;;
36963;SDS011;22878;48.616;35.326;2023-02-28T15:47:23;12.60;;;6.80;;
36963;SDS011;22878;48.616;35.326;2023-02-28T15:52:21;12.80;;;6.60;;
36963;SDS011;22878;48.616;35.326;2023-02-28T15:57:48;12.60;;;6.70;;
36963;SDS011;22878;48.616;35.326;2023-02-28T16:00:21;12.80;;;6.00;;
36963;SDS011;22878;48.616;35.326;2023-02-28T16:02:49;15.10;;;6.60;;
36963;SDS011;22878;48.616;35.326;2023-02-28T16:07:53;15.30;;;7.00;;
36963;SDS011;22878;48.616;35.326;2023-02-28T16:10:20;14.50;;;7.00;;
36963;SDS011;22878;48.616;35.326;2023-02-28T16:12:50;13.80;;;6.70;;
36963;SDS011;22878;48.616;35.326;2023-02-28T16:15:26;11.10;;;6.40;;
36963;SDS011;22878;48.616;35.326;2023-02-28T16:17:54;13.60;;;6.90;;
36963;SDS011;22878;48.616;35.326;2023-02-28T16:20:22;13.90;;;6.90;;
36963;SDS011;22878;48.616;35.326;2023-02-28T16:22:50;13.90;;;7.00;;
36963;SDS011;22878;48.616;35.326;2023-02-28T16:25:17;12.70;;;6.60;;
36963;SDS011;22878;48.616;35.326;2023-02-28T16:27:44;10.10;;;6.20;;
36963;SDS011;22878;48.616;35.326;2023-02-28T16:30:24;14.20;;;7.00;;
36963;SDS011;22878;48.616;35.326;2023-02-28T16:32:53;12.00;;;6.40;;
36963;SDS011;22878;48.616;35.326;2023-02-28T16:35:20;13.50;;;7.20;;
36963;SDS011;22878;48.616;35.326;2023-02-28T16:37:46;11.50;;;6.40;;
36963;SDS011;22878;48.616;35.326;2023-02-28T16:40:15;15.50;;;6.90;;
36963;SDS011;22878;48.616;35.326;2023-02-28T16:42:43;12.60;;;6.60;;
36963;SDS011;22878;48.616;35.326;2023-02-28T16:45:15;12.60;;;6.40;;
36963;SDS011;22878;48.616;35.326;2023-02-28T16:47:48;13.40;;;7.10;;
36963;SDS011;22878;48.616;35.326;2023-02-28T16:50:15;13.60;;;6.60;;
36963;SDS011;22878;48.616;35.326;2023-02-28T16:52:42;14.60;;;7.40;;
36963;SDS011;22878;48.616;35.326;2023-02-28T16:55:09;13.30;;;6.50;;
36963;SDS011;22878;48.616;35.326;2023-02-28T16:57:35;12.60;;;6.70;;
36963;SDS011;22878;48.616;35.326;2023-02-28T17:00:01;13.50;;;6.90;;
36963;SDS011;22878;48.616;35.326;2023-02-28T17:02:26;14.40;;;7.70;;
36963;SDS011;22878;48.616;35.326;2023-02-28T17:04:52;12.90;;;6.70;;
36963;SDS011;22878;48.616;35.326;2023-02-28T17:07:17;14.00;;;6.80;;
36963;SDS011;22878;48.616;35.326;2023-02-28T17:09:43;11.50;;;6.60;;
36963;SDS011;22878;48.616;35.326;2023-02-28T17:12:10;12.40;;;7.10;;
36963;SDS011;22878;48.616;35.326;2023-02-28T17:14:36;16.30;;;8.40;;
36963;SDS011;22878;48.616;35.326;2023-02-28T17:17:03;14.20;;;7.50;;
36963;SDS011;22878;48.616;35.326;2023-02-28T17:19:30;16.30;;;7.90;;
36963;SDS011;22878;48.616;35.326;2023-02-28T17:21:55;13.10;;;7.40;;